Terminal Aerodrome Forecast
Issued by NWS Oklahoma City, OK

Home | Current Version | Previous Version | Text Only | Print | Product List | Glossary On
Versions: 1 2 3 4 5 6 7 8 9 10 11 12 13 14 15 16 17 18 19 20 21 22 23 24 25 26
097
FTUS44 KOUN 131743
TAFOUN
TAF
KOUN 131743Z 1318/1418 14011KT P6SM SCT250
     FM132300 15013G20KT P6SM SCT250
     FM140500 13015G20KT P6SM BKN020
     FM140900 15010KT 3SM BR OVC009
     FM141600 35010KT 3SM BR OVC012=

USA.gov is the U.S. government's official web portal to all federal, state and local government web resources and services.